EGAALTBS

Guest
Details From EGAA - Belfast Aldergrove
To LTBS - Dalaman
Flight Number -
Tags Generated
Created
Modified
Stats Distance 1,793 nm / 3,320 km
Max Altitude 0 ft / 0 m
Waypoints 10
Social Downloads 1
Likes 0
Share VATSIM

Download

Looking for another format? Having issues loading an existing format? Contact us
Advertisement - Login to hide

Notes

Generated

Route

EGAA NAPEX BC ROLSO KFT25 TUZ28 SKJ81 NILVA DAL32 LTBS

ID Type Via Altitude Latitude Longitude Leg Dist Tot Dist Heading (true) Name
O EGAA APT - 0 ft / 0 m 54.65792˚ -6.22862˚ - 0 nm - -
NAPEX FIX - 0 ft / 0 m 53.20639˚ -0.86111˚ 208 nm 208 nm 112° / 117° -
BC NDB - 0 ft / 0 m 51.37028˚ 4.49083˚ 225 nm 434 nm 117° / 121° BRASSCHAAT NDB
ROLSO FIX - 0 ft / 0 m 49.35417˚ 9.30528˚ 220 nm 654 nm 121° / 125° -
KFT25 FIX - 0 ft / 0 m 46.90881˚ 14.15963˚ 243 nm 898 nm 125° / 129° -
TUZ28 FIX - 0 ft / 0 m 44.52553˚ 18.27351˚ 224 nm 1122 nm 128° / 131° -
SKJ81 FIX - 0 ft / 0 m 42.21713˚ 21.76873˚ 206 nm 1328 nm 131° / 133° -
NILVA FIX - 0 ft / 0 m 39.32389˚ 25.68278˚ 248 nm 1577 nm 133° / 136° -
DAL32 FIX - 0 ft / 0 m 36.82597˚ 28.62903˚ 204 nm 1782 nm 136° / 138° -
O LTBS APT - 0 ft / 0 m 36.70016˚ 28.78809˚ 10 nm 1792 nm 135° / 135° -

Altitude Profile

Advertisement - Login to hide

Weather


0- 5 10 15 20 25 30 35+ Temperature / ° C

Clouds and Precipitation
Forecast for 2017-12-18 12:00 UTC. Updated 2 hours ago

Ground ~20,000 ft ~40,000 ft Winds

EGAA

Details ICAO EGAA (BFS)
Name Belfast Aldergrove
Region United Kingdom
Timezone Europe/London (UTC+0.0)
Stats Elevation 268 ft / 82 m (AMSL)
Location 54.653878° -6.220006°
Runways 2
Magnetic Variation 3.239° W

METAR

EGAA 180850Z 19005KT CAVOK 01/01 Q1028

Decode

TAF

TAF AMD EGAA 180833Z 1808/1906 20005KT 7000 FEW030 BECMG 1808/1811 9999 PROB30 1808/1810 0500 BCFG BECMG 1816/1819 BKN008 BECMG 1819/1822 BKN003 TEMPO 1819/1906 3000 -RADZ BR BKN001 PROB30 TEMPO 1821/1906 0500 FG

Decode

Departure Runways

ID Width Length Bearing (true) Bearing (mag) Surface Threshold Offset Overrun Length
07 148 ft / 45 m 9,095 ft / 2,772 m 65.01° 68.25° Asphalt 0 ft / 0 m 0 ft / 0 m
17 148 ft / 45 m 5,896 ft / 1,797 m 161.98° 165.22° Asphalt 525 ft / 160 m 0 ft / 0 m
25 148 ft / 45 m 9,095 ft / 2,772 m 245.05° 248.29° Asphalt 0 ft / 0 m 0 ft / 0 m
35 148 ft / 45 m 5,896 ft / 1,797 m 341.99° 345.23° Asphalt 502 ft / 153 m 0 ft / 0 m

LTBS

Details ICAO LTBS (DLM)
Name DALAMAN
Region Turkey
Timezone Europe/Istanbul (UTC+3.0)
Stats Elevation 20 ft / 6 m (AMSL)
Location 36.713189° 28.792513°
Runways 1
Magnetic Variation 4.880° E

METAR

LTBS 180850Z 02004KT 9999 SCT025 BKN100 16/12 Q1018 NOSIG

Decode

TAF

Not found

Destination Runways

ID Width Length Bearing (true) Bearing (mag) Surface Threshold Offset Overrun Length
01 148 ft / 45 m 9,851 ft / 3,003 m 15.24° 10.36° Concrete 0 ft / 0 m 197 ft / 60 m
19 148 ft / 45 m 9,851 ft / 3,003 m 195.25° 190.37° Concrete 0 ft / 0 m 197 ft / 60 m

Popular Alternatives